Terminal Aerodrome Forecast
Issued by NWS

Home | Current Version | Previous Version | Graphics & Text | Print | Product List | Glossary On
Versions: 1 2 3 4 5 6 7 8 9 10 11 12 13 14 15 16 17
000
FTUS42 KMHX 071138
TAFISO
TAF
KISO 071138Z 0712/0812 31005KT P6SM BKN008
     FM071300 33006KT P6SM SCT030
     FM080700 VRB02KT P6SM SCT007 BKN025
      AMD LTD TO CLD VIS AND WIND=

USA.gov is the U.S. government's official web portal to all federal, state and local government web resources and services.